Time,TemperatureF,DewpointF,PressureIn,WindDirection,WindDirectionDegrees,WindSpeedMPH,WindSpeedGustMPH,Humidity,HourlyPrecipIn,Conditions,Clouds,dailyrainin,SoftwareType,DateUTC
2013-03-23 00:02:00,47.9,20.0,29.92,West,280,19.0,26.0,33,0.00,,,0.00,weatherlink.com 1.10,2013-03-23 07:02:00,
2013-03-23 00:17:00,47.7,20.0,29.93,WNW,285,13.0,28.0,33,0.00,,,0.00,weatherlink.com 1.10,2013-03-23 07:17:00,
2013-03-23 00:32:00,47.1,20.0,29.92,WNW,291,13.0,22.0,34,0.00,,,0.00,weatherlink.com 1.10,2013-03-23 07:32:00,
2013-03-23 00:47:00,47.0,18.0,29.92,West,268,23.0,28.0,32,0.00,,,0.00,weatherlink.com 1.10,2013-03-23 07:47:00,
2013-03-23 01:02:00,47.5,17.0,29.92,WNW,284,21.0,28.0,30,0.00,,,0.00,weatherlink.com 1.10,2013-03-23 08:02:00,
2013-03-23 01:17:00,48.3,14.0,29.92,West,271,9.0,20.0,25,0.00,,,0.00,weatherlink.com 1.10,2013-03-23 08:17:00,
2013-03-23 01:32:00,48.3,14.0,29.92,WNW,282,15.0,24.0,25,0.00,,,0.00,weatherlink.com 1.10,2013-03-23 08:32:00,
2013-03-23 01:47:00,47.9,13.0,29.92,NW,321,6.0,20.0,24,0.00,,,0.00,weatherlink.com 1.10,2013-03-23 08:47:00,
2013-03-23 02:02:00,47.1,11.0,29.92,WSW,254,6.0,14.0,23,0.00,,,0.00,weatherlink.com 1.10,2013-03-23 09:02:00,
2013-03-23 02:17:00,47.2,10.0,29.92,West,278,6.0,11.0,22,0.00,,,0.00,weatherlink.com 1.10,2013-03-23 09:17:00,
2013-03-23 02:32:00,47.1,10.0,29.91,West,272,5.0,9.0,22,0.00,,,0.00,weatherlink.com 1.10,2013-03-23 09:32:00,
2013-03-23 02:47:00,46.4,8.0,29.91,West,266,4.0,5.0,21,0.00,,,0.00,weatherlink.com 1.10,2013-03-23 09:47:00,
2013-03-23 03:02:00,47.1,7.0,29.91,WNW,285,2.0,6.0,19,0.00,,,0.00,weatherlink.com 1.10,2013-03-23 10:02:00,
2013-03-23 03:17:00,47.7,5.0,29.91,West,276,3.0,7.0,17,0.00,,,0.00,weatherlink.com 1.10,2013-03-23 10:17:00,
2013-03-23 03:32:00,47.5,4.0,29.91,WNW,290,3.0,7.0,17,0.00,,,0.00,weatherlink.com 1.10,2013-03-23 10:32:00,
2013-03-23 03:47:00,46.3,6.0,29.91,West,277,2.0,4.0,19,0.00,,,0.00,weatherlink.com 1.10,2013-03-23 10:47:00,
2013-03-23 04:02:00,45.5,5.0,29.92,West,274,4.0,4.0,19,0.00,,,0.00,weatherlink.com 1.10,2013-03-23 11:02:00,
2013-03-23 04:17:00,45.6,4.0,29.91,West,262,1.0,5.0,18,0.00,,,0.00,weatherlink.com 1.10,2013-03-23 11:17:00,
2013-03-23 04:32:00,45.5,4.0,29.92,WSW,256,4.0,6.0,18,0.00,,,0.00,weatherlink.com 1.10,2013-03-23 11:32:00,
2013-03-23 04:47:00,45.4,4.0,29.92,WSW,239,1.0,4.0,18,0.00,,,0.00,weatherlink.com 1.10,2013-03-23 11:47:00,
2013-03-23 05:02:00,45.3,5.0,29.92,SE,134,0.0,1.0,19,0.00,,,0.00,weatherlink.com 1.10,2013-03-23 12:02:00,
2013-03-23 05:17:00,44.3,5.0,29.93,SE,141,1.0,2.0,20,0.00,,,0.00,weatherlink.com 1.10,2013-03-23 12:17:00,
2013-03-23 05:32:00,44.5,7.0,29.93,SSE,150,1.0,3.0,21,0.00,,,0.00,weatherlink.com 1.10,2013-03-23 12:32:00,
2013-03-23 05:47:00,45.4,7.0,29.93,SE,131,2.0,3.0,21,0.00,,,0.00,weatherlink.com 1.10,2013-03-23 12:47:00,
2013-03-23 06:02:00,45.1,8.0,29.94,East,96,1.0,2.0,22,0.00,,,0.00,weatherlink.com 1.10,2013-03-23 13:02:00,
2013-03-23 06:17:00,46.1,8.0,29.95,SE,136,0.0,3.0,21,0.00,,,0.00,weatherlink.com 1.10,2013-03-23 13:17:00,
2013-03-23 06:32:00,45.7,9.0,29.95,ESE,108,1.0,3.0,22,0.00,,,0.00,weatherlink.com 1.10,2013-03-23 13:32:00,
2013-03-23 06:47:00,44.8,9.0,29.95,ESE,108,0.0,3.0,23,0.00,,,0.00,weatherlink.com 1.10,2013-03-23 13:47:00,
2013-03-23 07:02:00,47.0,9.0,29.96,North,352,0.0,1.0,21,0.00,,,0.00,weatherlink.com 1.10,2013-03-23 14:02:00,
2013-03-23 07:18:00,48.1,10.0,29.97,East,82,0.0,2.0,21,0.00,,,0.00,weatherlink.com 1.10,2013-03-23 14:18:00,
2013-03-23 07:33:00,48.8,11.0,29.97,East,86,2.0,4.0,22,0.00,,,0.00,weatherlink.com 1.10,2013-03-23 14:33:00,
2013-03-23 07:48:00,49.0,11.0,29.98,SE,124,1.0,5.0,22,0.00,,,0.00,weatherlink.com 1.10,2013-03-23 14:48:00,
2013-03-23 08:03:00,50.8,12.0,29.98,ENE,70,1.0,2.0,21,0.00,,,0.00,weatherlink.com 1.10,2013-03-23 15:03:00,
2013-03-23 08:18:00,51.5,14.0,29.99,SE,127,1.0,5.0,22,0.00,,,0.00,weatherlink.com 1.10,2013-03-23 15:18:00,
2013-03-23 08:33:00,52.9,15.0,29.99,NNE,31,1.0,5.0,22,0.00,,,0.00,weatherlink.com 1.10,2013-03-23 15:33:00,
2013-03-23 08:48:00,53.2,14.0,30.00,ESE,119,2.0,6.0,21,0.00,,,0.00,weatherlink.com 1.10,2013-03-23 15:48:00,
2013-03-23 09:03:00,53.4,15.0,30.01,East,80,4.0,5.0,22,0.00,,,0.00,weatherlink.com 1.10,2013-03-23 16:03:00,
2013-03-23 09:18:00,53.2,17.0,30.02,NE,56,3.0,8.0,24,0.00,,,0.00,weatherlink.com 1.10,2013-03-23 16:18:00,
2013-03-23 09:33:00,52.9,18.0,30.02,NE,42,3.0,8.0,25,0.00,,,0.00,weatherlink.com 1.10,2013-03-23 16:33:00,
2013-03-23 09:48:00,54.2,22.0,30.02,NE,53,4.0,6.0,28,0.00,,,0.00,weatherlink.com 1.10,2013-03-23 16:48:00,
2013-03-23 10:03:00,54.3,24.0,30.02,East,89,5.0,10.0,31,0.00,,,0.00,weatherlink.com 1.10,2013-03-23 17:03:00,
2013-03-23 10:18:00,55.0,26.0,30.02,NNE,23,5.0,10.0,33,0.00,,,0.00,weatherlink.com 1.10,2013-03-23 17:18:00,
2013-03-23 10:33:00,55.7,26.0,30.02,ENE,62,5.0,10.0,32,0.00,,,0.00,weatherlink.com 1.10,2013-03-23 17:33:00,
2013-03-23 10:48:00,56.3,25.0,30.02,NE,52,7.0,11.0,30,0.00,,,0.00,weatherlink.com 1.10,2013-03-23 17:48:00,
2013-03-23 11:03:00,56.5,24.0,30.02,NE,44,5.0,12.0,28,0.00,,,0.00,weatherlink.com 1.10,2013-03-23 18:03:00,
2013-03-23 11:18:00,57.4,23.0,30.02,ENE,71,10.0,12.0,27,0.00,,,0.00,weatherlink.com 1.10,2013-03-23 18:18:00,
2013-03-23 11:33:00,58.5,24.0,30.02,NE,46,7.0,11.0,26,0.00,,,0.00,weatherlink.com 1.10,2013-03-23 18:33:00,
2013-03-23 11:48:00,59.1,23.0,30.02,East,88,3.0,9.0,25,0.00,,,0.00,weatherlink.com 1.10,2013-03-23 18:48:00,
2013-03-23 12:03:00,59.9,23.0,30.02,North,358,6.0,11.0,24,0.00,,,0.00,weatherlink.com 1.10,2013-03-23 19:03:00,
2013-03-23 12:18:00,60.1,22.0,30.02,East,82,3.0,13.0,23,0.00,,,0.00,weatherlink.com 1.10,2013-03-23 19:18:00,
2013-03-23 12:33:00,60.7,20.0,30.02,North,7,9.0,13.0,21,0.00,,,0.00,weatherlink.com 1.10,2013-03-23 19:33:00,
2013-03-23 12:48:00,61.7,19.0,30.02,NE,40,6.0,12.0,19,0.00,,,0.00,weatherlink.com 1.10,2013-03-23 19:48:00,
2013-03-23 13:03:00,61.9,18.0,30.02,NNE,32,3.0,13.0,18,0.00,,,0.00,weatherlink.com 1.10,2013-03-23 20:03:00,
2013-03-23 13:20:00,63.0,14.0,30.01,NNW,342,4.0,12.0,15,0.00,,,0.00,weatherlink.com 1.10,2013-03-23 20:20:00,
2013-03-23 13:33:00,63.8,13.0,30.01,ENE,72,6.0,10.0,14,0.00,,,0.00,weatherlink.com 1.10,2013-03-23 20:33:00,
2013-03-23 13:48:00,63.7,12.0,30.00,NE,52,6.0,15.0,13,0.00,,,0.00,weatherlink.com 1.10,2013-03-23 20:48:00,
2013-03-23 14:04:00,65.0,13.0,29.99,ENE,68,4.0,11.0,13,0.00,,,0.00,weatherlink.com 1.10,2013-03-23 21:04:00,
2013-03-23 14:19:00,65.1,11.0,29.99,NE,38,4.0,11.0,12,0.00,,,0.00,weatherlink.com 1.10,2013-03-23 21:19:00,
2013-03-23 14:34:00,65.6,11.0,29.98,East,80,2.0,11.0,12,0.00,,,0.00,weatherlink.com 1.10,2013-03-23 21:34:00,
2013-03-23 14:49:00,64.4,9.0,29.98,ESE,108,0.0,11.0,11,0.00,,,0.00,weatherlink.com 1.10,2013-03-23 21:49:00,
2013-03-23 15:04:00,66.0,12.0,29.98,NE,56,2.0,9.0,12,0.00,,,0.00,weatherlink.com 1.10,2013-03-23 22:04:00,
2013-03-23 15:19:00,66.4,8.0,29.98,East,98,0.0,6.0,10,0.00,,,0.00,weatherlink.com 1.10,2013-03-23 22:19:00,
2013-03-23 15:34:00,65.9,10.0,29.97,NE,42,3.0,10.0,11,0.00,,,0.00,weatherlink.com 1.10,2013-03-23 22:34:00,
2013-03-23 15:49:00,65.7,7.0,29.96,SE,124,0.0,8.0,10,0.00,,,0.00,weatherlink.com 1.10,2013-03-23 22:49:00,
2013-03-23 16:04:00,66.2,8.0,29.96,ESE,102,1.0,6.0,10,0.00,,,0.00,weatherlink.com 1.10,2013-03-23 23:04:00,
2013-03-23 16:19:00,65.7,7.0,29.96,NE,44,3.0,8.0,10,0.00,,,0.00,weatherlink.com 1.10,2013-03-23 23:19:00,
2013-03-23 16:34:00,66.7,8.0,29.95,ENE,63,1.0,5.0,10,0.00,,,0.00,weatherlink.com 1.10,2013-03-23 23:34:00,
2013-03-23 16:49:00,66.1,8.0,29.95,NNE,16,0.0,5.0,10,0.00,,,0.00,weatherlink.com 1.10,2013-03-23 23:49:00,
2013-03-23 17:04:00,66.2,5.0,29.95,NNW,327,3.0,7.0,9,0.00,,,0.00,weatherlink.com 1.10,2013-03-24 00:04:00,
2013-03-23 17:19:00,65.1,5.0,29.95,WNW,300,2.0,6.0,9,0.00,,,0.00,weatherlink.com 1.10,2013-03-24 00:19:00,
2013-03-23 17:34:00,65.7,7.0,29.94,NE,53,2.0,3.0,10,0.00,,,0.00,weatherlink.com 1.10,2013-03-24 00:34:00,
2013-03-23 17:49:00,63.7,6.0,29.94,NW,311,1.0,4.0,10,0.00,,,0.00,weatherlink.com 1.10,2013-03-24 00:49:00,
2013-03-23 18:04:00,63.0,3.0,29.95,West,271,5.0,7.0,9,0.00,,,0.00,weatherlink.com 1.10,2013-03-24 01:04:00,
2013-03-23 18:19:00,61.0,-4.0,29.95,West,274,6.0,12.0,7,0.00,,,0.00,weatherlink.com 1.10,2013-03-24 01:19:00,
2013-03-23 18:34:00,59.5,-12.0,29.95,West,266,9.0,13.0,5,0.00,,,0.00,weatherlink.com 1.10,2013-03-24 01:34:00,
2013-03-23 18:49:00,58.6,-30.0,29.96,WNW,287,14.0,20.0,2,0.00,,,0.00,weatherlink.com 1.10,2013-03-24 01:49:00,
2013-03-23 19:04:00,57.9,-18.0,29.96,WNW,300,13.0,16.0,4,0.00,,,0.00,weatherlink.com 1.10,2013-03-24 02:04:00,
2013-03-23 19:19:00,57.1,-10.0,29.96,WNW,288,11.0,18.0,6,0.00,,,0.00,weatherlink.com 1.10,2013-03-24 02:19:00,
2013-03-23 19:34:00,56.9,-10.0,29.96,West,276,5.0,13.0,6,0.00,,,0.00,weatherlink.com 1.10,2013-03-24 02:34:00,
2013-03-23 19:49:00,56.5,-14.0,29.96,WNW,282,5.0,14.0,5,0.00,,,0.00,weatherlink.com 1.10,2013-03-24 02:49:00,
2013-03-23 20:04:00,56.7,-4.0,29.96,West,271,7.0,15.0,8,0.00,,,0.00,weatherlink.com 1.10,2013-03-24 03:04:00,
2013-03-23 20:19:00,56.5,9.0,29.97,NW,309,1.0,7.0,15,0.00,,,0.00,weatherlink.com 1.10,2013-03-24 03:19:00,
2013-03-23 20:34:00,56.5,-7.0,29.97,West,264,7.0,9.0,7,0.00,,,0.00,weatherlink.com 1.10,2013-03-24 03:34:00,
2013-03-23 20:50:00,56.6,-10.0,29.97,NW,304,7.0,9.0,6,0.00,,,0.00,weatherlink.com 1.10,2013-03-24 03:50:00,
2013-03-23 21:05:00,56.9,-14.0,29.97,WNW,302,7.0,11.0,5,0.00,,,0.00,weatherlink.com 1.10,2013-03-24 04:05:00,
2013-03-23 21:20:00,56.8,-14.0,29.99,West,281,6.0,11.0,5,0.00,,,0.00,weatherlink.com 1.10,2013-03-24 04:20:00,
2013-03-23 21:35:00,56.2,-14.0,29.99,WNW,284,7.0,15.0,5,0.00,,,0.00,weatherlink.com 1.10,2013-03-24 04:35:00,
2013-03-23 21:50:00,55.7,-15.0,30.00,WNW,301,8.0,16.0,5,0.00,,,0.00,weatherlink.com 1.10,2013-03-24 04:50:00,
2013-03-23 22:05:00,56.2,-11.0,30.00,West,273,11.0,15.0,6,0.00,,,0.00,weatherlink.com 1.10,2013-03-24 05:05:00,
2013-03-23 22:20:00,55.8,-19.0,30.00,WNW,286,14.0,24.0,4,0.00,,,0.00,weatherlink.com 1.10,2013-03-24 05:20:00,
2013-03-23 22:35:00,55.8,-19.0,30.00,WSW,243,8.0,24.0,4,0.00,,,0.00,weatherlink.com 1.10,2013-03-24 05:35:00,
2013-03-23 22:50:00,55.7,-19.0,29.99,West,269,7.0,12.0,4,0.00,,,0.00,weatherlink.com 1.10,2013-03-24 05:50:00,
2013-03-23 23:05:00,55.0,-15.0,29.99,WSW,250,4.0,8.0,5,0.00,,,0.00,weatherlink.com 1.10,2013-03-24 06:05:00,
2013-03-23 23:20:00,54.7,-15.0,30.00,West,265,4.0,7.0,5,0.00,,,0.00,weatherlink.com 1.10,2013-03-24 06:20:00,
2013-03-23 23:35:00,53.9,-16.0,29.99,SW,234,4.0,11.0,5,0.00,,,0.00,weatherlink.com 1.10,2013-03-24 06:35:00,
2013-03-23 23:50:00,53.8,-16.0,29.99,West,272,1.0,5.0,5,0.00,,,0.00,weatherlink.com 1.10,2013-03-24 06:50:00,